sensor_id;sensor_type;location;lat;lon;timestamp;P1;durP1;ratioP1;P2;durP2;ratioP2
22778;SDS011;11556;51.194;3.800;2023-03-01T00:01:49;14.43;;;8.45;;
22778;SDS011;11556;51.194;3.800;2023-03-01T00:04:15;12.00;;;8.43;;
22778;SDS011;11556;51.194;3.800;2023-03-01T00:06:42;11.07;;;7.90;;
22778;SDS011;11556;51.194;3.800;2023-03-01T00:09:11;13.90;;;8.40;;
22778;SDS011;11556;51.194;3.800;2023-03-01T00:11:37;10.48;;;7.35;;
22778;SDS011;11556;51.194;3.800;2023-03-01T00:14:03;13.23;;;8.52;;
22778;SDS011;11556;51.194;3.800;2023-03-01T00:16:34;12.00;;;7.20;;
22778;SDS011;11556;51.194;3.800;2023-03-01T00:19:05;10.70;;;7.65;;
22778;SDS011;11556;51.194;3.800;2023-03-01T00:21:31;11.65;;;7.90;;
22778;SDS011;11556;51.194;3.800;2023-03-01T00:23:58;12.30;;;8.20;;
22778;SDS011;11556;51.194;3.800;2023-03-01T00:26:24;11.23;;;8.52;;
22778;SDS011;11556;51.194;3.800;2023-03-01T00:28:51;12.25;;;8.63;;
22778;SDS011;11556;51.194;3.800;2023-03-01T00:31:18;11.85;;;8.10;;
22778;SDS011;11556;51.194;3.800;2023-03-01T00:33:46;15.32;;;8.65;;
22778;SDS011;11556;51.194;3.800;2023-03-01T00:36:12;14.98;;;9.15;;
22778;SDS011;11556;51.194;3.800;2023-03-01T00:38:40;14.48;;;8.98;;
22778;SDS011;11556;51.194;3.800;2023-03-01T00:41:08;14.02;;;8.60;;
22778;SDS011;11556;51.194;3.800;2023-03-01T00:43:36;17.35;;;9.32;;
22778;SDS011;11556;51.194;3.800;2023-03-01T00:46:03;13.57;;;9.10;;
22778;SDS011;11556;51.194;3.800;2023-03-01T00:48:30;14.13;;;9.77;;
22778;SDS011;11556;51.194;3.800;2023-03-01T00:50:55;14.80;;;9.65;;
22778;SDS011;11556;51.194;3.800;2023-03-01T00:53:21;15.90;;;9.60;;
22778;SDS011;11556;51.194;3.800;2023-03-01T00:55:46;14.43;;;10.18;;
22778;SDS011;11556;51.194;3.800;2023-03-01T00:58:12;16.25;;;10.85;;
22778;SDS011;11556;51.194;3.800;2023-03-01T01:00:37;18.88;;;10.90;;
22778;SDS011;11556;51.194;3.800;2023-03-01T01:03:03;17.88;;;11.30;;
22778;SDS011;11556;51.194;3.800;2023-03-01T01:05:29;20.65;;;11.25;;
22778;SDS011;11556;51.194;3.800;2023-03-01T01:07:54;20.92;;;12.55;;
22778;SDS011;11556;51.194;3.800;2023-03-01T01:10:20;18.02;;;11.88;;
22778;SDS011;11556;51.194;3.800;2023-03-01T01:12:45;21.73;;;12.50;;
22778;SDS011;11556;51.194;3.800;2023-03-01T01:15:11;22.52;;;12.95;;
22778;SDS011;11556;51.194;3.800;2023-03-01T01:17:39;21.52;;;13.60;;
22778;SDS011;11556;51.194;3.800;2023-03-01T01:20:05;26.38;;;14.43;;
22778;SDS011;11556;51.194;3.800;2023-03-01T01:22:31;20.23;;;12.73;;
22778;SDS011;11556;51.194;3.800;2023-03-01T01:24:57;24.33;;;13.82;;
22778;SDS011;11556;51.194;3.800;2023-03-01T01:27:22;25.08;;;14.40;;
22778;SDS011;11556;51.194;3.800;2023-03-01T01:29:48;27.83;;;15.20;;
22778;SDS011;11556;51.194;3.800;2023-03-01T01:32:14;24.00;;;14.85;;
22778;SDS011;11556;51.194;3.800;2023-03-01T01:34:39;26.23;;;15.05;;
22778;SDS011;11556;51.194;3.800;2023-03-01T01:37:05;27.05;;;15.40;;
22778;SDS011;11556;51.194;3.800;2023-03-01T01:39:34;26.77;;;15.65;;
22778;SDS011;11556;51.194;3.800;2023-03-01T01:42:00;26.95;;;16.10;;
22778;SDS011;11556;51.194;3.800;2023-03-01T01:44:27;25.65;;;15.68;;
22778;SDS011;11556;51.194;3.800;2023-03-01T01:46:55;30.30;;;16.58;;
22778;SDS011;11556;51.194;3.800;2023-03-01T01:52:14;27.88;;;16.83;;
22778;SDS011;11556;51.194;3.800;2023-03-01T01:54:46;30.80;;;17.05;;
22778;SDS011;11556;51.194;3.800;2023-03-01T01:57:26;30.42;;;16.73;;
22778;SDS011;11556;51.194;3.800;2023-03-01T01:59:58;30.08;;;17.23;;
22778;SDS011;11556;51.194;3.800;2023-03-01T02:02:29;30.27;;;17.25;;
22778;SDS011;11556;51.194;3.800;2023-03-01T02:05:00;32.80;;;18.75;;
22778;SDS011;11556;51.194;3.800;2023-03-01T02:07:30;32.33;;;18.30;;
22778;SDS011;11556;51.194;3.800;2023-03-01T02:09:56;29.73;;;17.40;;
22778;SDS011;11556;51.194;3.800;2023-03-01T02:12:23;33.90;;;19.00;;
22778;SDS011;11556;51.194;3.800;2023-03-01T02:14:50;32.22;;;18.20;;
22778;SDS011;11556;51.194;3.800;2023-03-01T02:17:17;34.45;;;18.15;;
22778;SDS011;11556;51.194;3.800;2023-03-01T02:22:34;32.30;;;18.75;;
22778;SDS011;11556;51.194;3.800;2023-03-01T02:30:18;31.77;;;18.13;;
22778;SDS011;11556;51.194;3.800;2023-03-01T02:32:46;35.58;;;18.73;;
22778;SDS011;11556;51.194;3.800;2023-03-01T02:35:13;33.22;;;18.38;;
22778;SDS011;11556;51.194;3.800;2023-03-01T02:37:41;33.13;;;18.60;;
22778;SDS011;11556;51.194;3.800;2023-03-01T02:40:09;35.05;;;18.60;;
22778;SDS011;11556;51.194;3.800;2023-03-01T02:42:45;32.88;;;19.00;;
22778;SDS011;11556;51.194;3.800;2023-03-01T02:45:16;37.20;;;19.25;;
22778;SDS011;11556;51.194;3.800;2023-03-01T02:47:41;35.80;;;19.02;;
22778;SDS011;11556;51.194;3.800;2023-03-01T02:50:12;33.75;;;18.67;;
22778;SDS011;11556;51.194;3.800;2023-03-01T02:52:53;32.95;;;17.65;;
22778;SDS011;11556;51.194;3.800;2023-03-01T02:55:35;35.38;;;18.20;;
22778;SDS011;11556;51.194;3.800;2023-03-01T02:58:01;34.80;;;18.40;;
22778;SDS011;11556;51.194;3.800;2023-03-01T03:00:30;30.40;;;17.95;;
22778;SDS011;11556;51.194;3.800;2023-03-01T03:03:00;34.05;;;18.75;;
22778;SDS011;11556;51.194;3.800;2023-03-01T03:05:27;35.78;;;19.60;;
22778;SDS011;11556;51.194;3.800;2023-03-01T03:07:54;32.20;;;17.90;;
22778;SDS011;11556;51.194;3.800;2023-03-01T03:10:31;33.90;;;18.63;;
22778;SDS011;11556;51.194;3.800;2023-03-01T03:13:03;36.55;;;17.98;;
22778;SDS011;11556;51.194;3.800;2023-03-01T03:15:31;33.50;;;18.63;;
22778;SDS011;11556;51.194;3.800;2023-03-01T03:18:01;35.63;;;19.00;;
22778;SDS011;11556;51.194;3.800;2023-03-01T03:20:28;31.88;;;18.38;;
22778;SDS011;11556;51.194;3.800;2023-03-01T03:22:55;34.35;;;18.70;;
22778;SDS011;11556;51.194;3.800;2023-03-01T03:25:21;35.45;;;19.30;;
22778;SDS011;11556;51.194;3.800;2023-03-01T03:27:49;36.75;;;19.23;;
22778;SDS011;11556;51.194;3.800;2023-03-01T03:30:21;36.15;;;19.58;;
22778;SDS011;11556;51.194;3.800;2023-03-01T03:32:49;37.55;;;20.05;;
22778;SDS011;11556;51.194;3.800;2023-03-01T03:35:22;41.22;;;19.98;;
22778;SDS011;11556;51.194;3.800;2023-03-01T03:37:51;38.42;;;19.42;;
22778;SDS011;11556;51.194;3.800;2023-03-01T03:43:04;35.97;;;18.35;;
22778;SDS011;11556;51.194;3.800;2023-03-01T03:45:50;34.50;;;18.42;;
22778;SDS011;11556;51.194;3.800;2023-03-01T03:48:17;34.92;;;19.05;;
22778;SDS011;11556;51.194;3.800;2023-03-01T03:50:47;34.80;;;18.77;;
22778;SDS011;11556;51.194;3.800;2023-03-01T03:53:14;33.20;;;17.85;;
22778;SDS011;11556;51.194;3.800;2023-03-01T03:55:40;33.75;;;17.77;;
22778;SDS011;11556;51.194;3.800;2023-03-01T03:58:07;32.63;;;18.38;;
22778;SDS011;11556;51.194;3.800;2023-03-01T04:00:35;35.88;;;18.45;;
22778;SDS011;11556;51.194;3.800;2023-03-01T04:03:01;36.95;;;19.65;;
22778;SDS011;11556;51.194;3.800;2023-03-01T04:05:27;38.47;;;18.98;;
22778;SDS011;11556;51.194;3.800;2023-03-01T04:07:53;34.65;;;18.10;;
22778;SDS011;11556;51.194;3.800;2023-03-01T04:10:26;35.30;;;18.65;;
22778;SDS011;11556;51.194;3.800;2023-03-01T04:12:56;42.45;;;22.10;;
22778;SDS011;11556;51.194;3.800;2023-03-01T04:15:23;41.53;;;20.38;;
22778;SDS011;11556;51.194;3.800;2023-03-01T04:17:50;37.38;;;19.67;;
22778;SDS011;11556;51.194;3.800;2023-03-01T04:20:19;35.60;;;18.90;;
22778;SDS011;11556;51.194;3.800;2023-03-01T04:22:56;35.60;;;18.73;;
22778;SDS011;11556;51.194;3.800;2023-03-01T04:25:23;35.05;;;18.10;;
22778;SDS011;11556;51.194;3.800;2023-03-01T04:27:49;37.78;;;19.27;;
22778;SDS011;11556;51.194;3.800;2023-03-01T04:30:15;33.08;;;18.15;;
22778;SDS011;11556;51.194;3.800;2023-03-01T04:32:41;36.75;;;18.83;;
22778;SDS011;11556;51.194;3.800;2023-03-01T04:35:07;38.13;;;19.67;;
22778;SDS011;11556;51.194;3.800;2023-03-01T04:37:33;39.80;;;20.15;;
22778;SDS011;11556;51.194;3.800;2023-03-01T04:39:59;37.35;;;19.23;;
22778;SDS011;11556;51.194;3.800;2023-03-01T04:42:26;37.90;;;18.85;;
22778;SDS011;11556;51.194;3.800;2023-03-01T04:44:51;34.97;;;19.40;;
22778;SDS011;11556;51.194;3.800;2023-03-01T04:47:17;38.28;;;20.65;;
22778;SDS011;11556;51.194;3.800;2023-03-01T04:49:43;35.28;;;18.50;;
22778;SDS011;11556;51.194;3.800;2023-03-01T04:52:09;38.58;;;19.42;;
22778;SDS011;11556;51.194;3.800;2023-03-01T04:54:35;37.25;;;19.58;;
22778;SDS011;11556;51.194;3.800;2023-03-01T04:57:01;38.75;;;19.80;;
22778;SDS011;11556;51.194;3.800;2023-03-01T04:59:28;38.63;;;20.38;;
22778;SDS011;11556;51.194;3.800;2023-03-01T05:01:54;36.70;;;19.83;;
22778;SDS011;11556;51.194;3.800;2023-03-01T05:04:21;38.65;;;19.83;;
22778;SDS011;11556;51.194;3.800;2023-03-01T05:06:47;35.92;;;19.52;;
22778;SDS011;11556;51.194;3.800;2023-03-01T05:09:13;37.50;;;19.60;;
22778;SDS011;11556;51.194;3.800;2023-03-01T05:11:38;36.72;;;19.67;;
22778;SDS011;11556;51.194;3.800;2023-03-01T05:14:05;37.75;;;19.65;;
22778;SDS011;11556;51.194;3.800;2023-03-01T05:16:31;36.30;;;18.83;;
22778;SDS011;11556;51.194;3.800;2023-03-01T05:18:58;35.17;;;19.23;;
22778;SDS011;11556;51.194;3.800;2023-03-01T05:21:24;38.03;;;19.65;;
22778;SDS011;11556;51.194;3.800;2023-03-01T05:23:50;39.40;;;18.98;;
22778;SDS011;11556;51.194;3.800;2023-03-01T05:26:16;35.03;;;18.48;;
22778;SDS011;11556;51.194;3.800;2023-03-01T05:28:45;38.83;;;19.58;;
22778;SDS011;11556;51.194;3.800;2023-03-01T05:31:10;35.35;;;17.83;;
22778;SDS011;11556;51.194;3.800;2023-03-01T05:33:36;38.22;;;18.63;;
22778;SDS011;11556;51.194;3.800;2023-03-01T05:36:04;34.80;;;18.23;;
22778;SDS011;11556;51.194;3.800;2023-03-01T05:38:30;35.15;;;18.00;;
22778;SDS011;11556;51.194;3.800;2023-03-01T05:40:56;38.17;;;18.25;;
22778;SDS011;11556;51.194;3.800;2023-03-01T05:43:22;35.00;;;18.05;;
22778;SDS011;11556;51.194;3.800;2023-03-01T05:45:48;35.92;;;19.35;;
22778;SDS011;11556;51.194;3.800;2023-03-01T05:48:13;40.53;;;18.13;;
22778;SDS011;11556;51.194;3.800;2023-03-01T05:50:40;38.45;;;19.23;;
22778;SDS011;11556;51.194;3.800;2023-03-01T05:53:12;37.88;;;19.17;;
22778;SDS011;11556;51.194;3.800;2023-03-01T05:55:40;37.63;;;19.08;;
22778;SDS011;11556;51.194;3.800;2023-03-01T05:58:07;36.83;;;17.95;;
22778;SDS011;11556;51.194;3.800;2023-03-01T06:00:39;33.10;;;18.27;;
22778;SDS011;11556;51.194;3.800;2023-03-01T06:03:05;37.60;;;19.55;;
22778;SDS011;11556;51.194;3.800;2023-03-01T06:05:31;37.72;;;19.75;;
22778;SDS011;11556;51.194;3.800;2023-03-01T06:08:00;39.45;;;18.73;;
22778;SDS011;11556;51.194;3.800;2023-03-01T06:10:26;39.00;;;18.85;;
22778;SDS011;11556;51.194;3.800;2023-03-01T06:12:53;37.92;;;19.27;;
22778;SDS011;11556;51.194;3.800;2023-03-01T06:15:19;39.85;;;19.02;;
22778;SDS011;11556;51.194;3.800;2023-03-01T06:17:45;40.03;;;19.38;;
22778;SDS011;11556;51.194;3.800;2023-03-01T06:20:15;37.05;;;19.02;;
22778;SDS011;11556;51.194;3.800;2023-03-01T06:22:43;35.95;;;19.30;;
22778;SDS011;11556;51.194;3.800;2023-03-01T06:25:10;38.60;;;19.27;;
22778;SDS011;11556;51.194;3.800;2023-03-01T06:27:37;34.85;;;18.88;;
22778;SDS011;11556;51.194;3.800;2023-03-01T06:30:03;40.17;;;19.77;;
22778;SDS011;11556;51.194;3.800;2023-03-01T06:32:29;38.97;;;20.15;;
22778;SDS011;11556;51.194;3.800;2023-03-01T06:34:56;39.13;;;20.33;;
22778;SDS011;11556;51.194;3.800;2023-03-01T06:37:23;40.72;;;19.70;;
22778;SDS011;11556;51.194;3.800;2023-03-01T06:39:49;36.17;;;19.75;;
22778;SDS011;11556;51.194;3.800;2023-03-01T06:42:15;38.40;;;18.83;;
22778;SDS011;11556;51.194;3.800;2023-03-01T06:44:40;34.70;;;18.48;;
22778;SDS011;11556;51.194;3.800;2023-03-01T06:47:06;38.42;;;18.98;;
22778;SDS011;11556;51.194;3.800;2023-03-01T06:49:31;33.17;;;18.48;;
22778;SDS011;11556;51.194;3.800;2023-03-01T06:51:57;37.92;;;18.60;;
22778;SDS011;11556;51.194;3.800;2023-03-01T06:54:23;36.67;;;19.17;;
22778;SDS011;11556;51.194;3.800;2023-03-01T06:56:49;36.78;;;19.42;;
22778;SDS011;11556;51.194;3.800;2023-03-01T06:59:15;40.25;;;20.35;;
22778;SDS011;11556;51.194;3.800;2023-03-01T07:01:42;42.38;;;21.05;;
22778;SDS011;11556;51.194;3.800;2023-03-01T07:04:08;38.78;;;20.23;;
22778;SDS011;11556;51.194;3.800;2023-03-01T07:06:34;33.40;;;18.38;;
22778;SDS011;11556;51.194;3.800;2023-03-01T07:09:00;33.78;;;18.38;;
22778;SDS011;11556;51.194;3.800;2023-03-01T07:11:25;36.60;;;18.75;;
22778;SDS011;11556;51.194;3.800;2023-03-01T07:13:51;30.08;;;17.60;;
22778;SDS011;11556;51.194;3.800;2023-03-01T07:16:17;31.98;;;17.00;;
22778;SDS011;11556;51.194;3.800;2023-03-01T07:18:43;25.88;;;16.13;;
22778;SDS011;11556;51.194;3.800;2023-03-01T07:21:09;28.58;;;15.95;;
22778;SDS011;11556;51.194;3.800;2023-03-01T07:23:37;24.70;;;14.32;;
22778;SDS011;11556;51.194;3.800;2023-03-01T07:26:03;27.35;;;13.55;;
22778;SDS011;11556;51.194;3.800;2023-03-01T07:28:31;23.40;;;13.50;;
22778;SDS011;11556;51.194;3.800;2023-03-01T07:31:04;22.63;;;13.18;;
22778;SDS011;11556;51.194;3.800;2023-03-01T07:33:30;27.50;;;13.32;;
22778;SDS011;11556;51.194;3.800;2023-03-01T07:36:00;21.60;;;12.45;;
22778;SDS011;11556;51.194;3.800;2023-03-01T07:38:27;26.38;;;12.63;;
22778;SDS011;11556;51.194;3.800;2023-03-01T07:40:57;24.75;;;12.45;;
22778;SDS011;11556;51.194;3.800;2023-03-01T07:43:24;19.67;;;12.18;;
22778;SDS011;11556;51.194;3.800;2023-03-01T07:45:49;24.50;;;11.45;;
22778;SDS011;11556;51.194;3.800;2023-03-01T07:48:15;19.27;;;11.82;;
22778;SDS011;11556;51.194;3.800;2023-03-01T07:50:41;18.92;;;12.15;;
22778;SDS011;11556;51.194;3.800;2023-03-01T07:53:06;19.98;;;11.95;;
22778;SDS011;11556;51.194;3.800;2023-03-01T07:55:32;16.70;;;10.85;;
22778;SDS011;11556;51.194;3.800;2023-03-01T07:57:57;14.40;;;10.20;;
22778;SDS011;11556;51.194;3.800;2023-03-01T08:00:23;14.63;;;9.75;;
22778;SDS011;11556;51.194;3.800;2023-03-01T08:02:48;15.90;;;10.65;;
22778;SDS011;11556;51.194;3.800;2023-03-01T08:05:14;17.63;;;10.18;;
22778;SDS011;11556;51.194;3.800;2023-03-01T08:07:40;14.38;;;9.63;;
22778;SDS011;11556;51.194;3.800;2023-03-01T08:10:06;15.70;;;10.30;;
22778;SDS011;11556;51.194;3.800;2023-03-01T08:12:32;14.50;;;10.18;;
22778;SDS011;11556;51.194;3.800;2023-03-01T08:14:57;13.07;;;9.43;;
22778;SDS011;11556;51.194;3.800;2023-03-01T08:17:23;18.25;;;9.85;;
22778;SDS011;11556;51.194;3.800;2023-03-01T08:19:49;14.65;;;10.13;;
22778;SDS011;11556;51.194;3.800;2023-03-01T08:22:14;14.10;;;9.30;;
22778;SDS011;11556;51.194;3.800;2023-03-01T08:24:40;12.35;;;9.07;;
22778;SDS011;11556;51.194;3.800;2023-03-01T08:27:05;14.85;;;9.23;;
22778;SDS011;11556;51.194;3.800;2023-03-01T08:29:31;10.77;;;8.18;;
22778;SDS011;11556;51.194;3.800;2023-03-01T08:31:58;13.15;;;8.43;;
22778;SDS011;11556;51.194;3.800;2023-03-01T08:34:24;10.50;;;8.02;;
22778;SDS011;11556;51.194;3.800;2023-03-01T08:36:50;11.43;;;8.02;;
22778;SDS011;11556;51.194;3.800;2023-03-01T08:39:17;11.57;;;7.85;;
22778;SDS011;11556;51.194;3.800;2023-03-01T08:41:44;11.95;;;7.88;;
22778;SDS011;11556;51.194;3.800;2023-03-01T08:44:11;16.83;;;8.35;;
22778;SDS011;11556;51.194;3.800;2023-03-01T08:46:39;13.30;;;7.80;;
22778;SDS011;11556;51.194;3.800;2023-03-01T08:49:11;12.68;;;7.57;;
22778;SDS011;11556;51.194;3.800;2023-03-01T08:51:38;12.50;;;7.20;;
22778;SDS011;11556;51.194;3.800;2023-03-01T08:54:05;11.93;;;7.60;;
22778;SDS011;11556;51.194;3.800;2023-03-01T08:56:33;10.75;;;7.60;;
22778;SDS011;11556;51.194;3.800;2023-03-01T08:58:58;11.38;;;7.30;;
22778;SDS011;11556;51.194;3.800;2023-03-01T09:01:24;12.00;;;7.20;;
22778;SDS011;11556;51.194;3.800;2023-03-01T09:03:50;11.30;;;7.13;;
22778;SDS011;11556;51.194;3.800;2023-03-01T09:06:16;10.35;;;7.00;;
22778;SDS011;11556;51.194;3.800;2023-03-01T09:08:43;12.63;;;7.63;;
22778;SDS011;11556;51.194;3.800;2023-03-01T09:11:11;9.63;;;7.25;;
22778;SDS011;11556;51.194;3.800;2023-03-01T09:13:40;11.27;;;7.15;;
22778;SDS011;11556;51.194;3.800;2023-03-01T09:16:06;12.02;;;7.13;;
22778;SDS011;11556;51.194;3.800;2023-03-01T09:18:33;10.40;;;7.00;;
22778;SDS011;11556;51.194;3.800;2023-03-01T09:21:11;10.60;;;6.50;;
22778;SDS011;11556;51.194;3.800;2023-03-01T09:23:39;10.68;;;7.07;;
22778;SDS011;11556;51.194;3.800;2023-03-01T09:26:10;9.95;;;7.20;;
22778;SDS011;11556;51.194;3.800;2023-03-01T09:28:37;10.43;;;7.28;;
22778;SDS011;11556;51.194;3.800;2023-03-01T09:31:04;11.45;;;7.30;;
22778;SDS011;11556;51.194;3.800;2023-03-01T09:33:30;11.05;;;7.15;;
22778;SDS011;11556;51.194;3.800;2023-03-01T09:35:58;16.05;;;8.00;;
22778;SDS011;11556;51.194;3.800;2023-03-01T09:38:28;11.73;;;7.72;;
22778;SDS011;11556;51.194;3.800;2023-03-01T09:40:54;11.25;;;7.55;;
22778;SDS011;11556;51.194;3.800;2023-03-01T09:45:48;11.98;;;7.70;;
22778;SDS011;11556;51.194;3.800;2023-03-01T09:48:18;11.52;;;7.38;;
22778;SDS011;11556;51.194;3.800;2023-03-01T09:50:48;11.27;;;7.28;;
22778;SDS011;11556;51.194;3.800;2023-03-01T09:53:19;10.93;;;7.32;;
22778;SDS011;11556;51.194;3.800;2023-03-01T09:56:00;13.03;;;7.87;;
22778;SDS011;11556;51.194;3.800;2023-03-01T09:58:35;13.70;;;7.68;;
22778;SDS011;11556;51.194;3.800;2023-03-01T10:01:28;14.25;;;7.53;;
22778;SDS011;11556;51.194;3.800;2023-03-01T10:06:44;9.82;;;6.30;;
22778;SDS011;11556;51.194;3.800;2023-03-01T10:09:23;8.35;;;6.45;;
22778;SDS011;11556;51.194;3.800;2023-03-01T10:11:50;8.80;;;6.38;;
22778;SDS011;11556;51.194;3.800;2023-03-01T10:17:03;8.85;;;6.50;;
22778;SDS011;11556;51.194;3.800;2023-03-01T10:19:48;8.07;;;6.25;;
22778;SDS011;11556;51.194;3.800;2023-03-01T10:22:21;11.13;;;6.20;;
22778;SDS011;11556;51.194;3.800;2023-03-01T10:24:53;8.77;;;6.18;;
22778;SDS011;11556;51.194;3.800;2023-03-01T10:29:54;8.50;;;5.55;;
22778;SDS011;11556;51.194;3.800;2023-03-01T10:32:29;10.40;;;6.35;;
22778;SDS011;11556;51.194;3.800;2023-03-01T10:34:55;8.80;;;5.57;;
22778;SDS011;11556;51.194;3.800;2023-03-01T10:37:22;9.45;;;5.63;;
22778;SDS011;11556;51.194;3.800;2023-03-01T10:42:34;8.88;;;6.15;;
22778;SDS011;11556;51.194;3.800;2023-03-01T10:50:45;6.75;;;5.80;;
22778;SDS011;11556;51.194;3.800;2023-03-01T10:53:30;8.88;;;6.22;;
22778;SDS011;11556;51.194;3.800;2023-03-01T10:58:36;8.00;;;5.70;;
22778;SDS011;11556;51.194;3.800;2023-03-01T11:01:24;7.50;;;5.57;;
22778;SDS011;11556;51.194;3.800;2023-03-01T11:06:34;8.10;;;5.45;;
22778;SDS011;11556;51.194;3.800;2023-03-01T11:11:38;8.18;;;5.50;;
22778;SDS011;11556;51.194;3.800;2023-03-01T11:14:12;12.63;;;5.57;;
22778;SDS011;11556;51.194;3.800;2023-03-01T11:16:45;6.97;;;4.93;;
22778;SDS011;11556;51.194;3.800;2023-03-01T11:19:18;7.80;;;4.97;;
22778;SDS011;11556;51.194;3.800;2023-03-01T11:22:05;7.20;;;4.75;;
22778;SDS011;11556;51.194;3.800;2023-03-01T11:27:03;10.25;;;5.25;;
22778;SDS011;11556;51.194;3.800;2023-03-01T11:32:04;6.75;;;5.03;;
22778;SDS011;11556;51.194;3.800;2023-03-01T11:37:28;7.40;;;5.18;;
22778;SDS011;11556;51.194;3.800;2023-03-01T11:40:13;6.68;;;4.60;;
22778;SDS011;11556;51.194;3.800;2023-03-01T11:45:54;7.78;;;4.90;;
22778;SDS011;11556;51.194;3.800;2023-03-01T11:51:09;9.07;;;5.05;;
22778;SDS011;11556;51.194;3.800;2023-03-01T11:57:04;10.13;;;5.33;;
22778;SDS011;11556;51.194;3.800;2023-03-01T12:07:53;11.10;;;5.65;;
22778;SDS011;11556;51.194;3.800;2023-03-01T12:10:33;9.60;;;5.22;;
22778;SDS011;11556;51.194;3.800;2023-03-01T12:13:35;7.72;;;5.30;;
22778;SDS011;11556;51.194;3.800;2023-03-01T12:16:20;8.25;;;5.95;;
22778;SDS011;11556;51.194;3.800;2023-03-01T12:18:58;7.10;;;5.35;;
22778;SDS011;11556;51.194;3.800;2023-03-01T12:24:31;10.55;;;5.95;;
22778;SDS011;11556;51.194;3.800;2023-03-01T12:38:08;6.80;;;5.45;;
22778;SDS011;11556;51.194;3.800;2023-03-01T12:46:36;7.97;;;5.20;;
22778;SDS011;11556;51.194;3.800;2023-03-01T12:49:20;6.57;;;5.13;;
22778;SDS011;11556;51.194;3.800;2023-03-01T12:52:00;8.80;;;5.60;;
22778;SDS011;11556;51.194;3.800;2023-03-01T12:54:38;8.02;;;5.07;;
22778;SDS011;11556;51.194;3.800;2023-03-01T12:57:16;7.15;;;4.68;;
22778;SDS011;11556;51.194;3.800;2023-03-01T13:02:31;11.60;;;6.05;;
22778;SDS011;11556;51.194;3.800;2023-03-01T13:11:11;8.02;;;5.30;;
22778;SDS011;11556;51.194;3.800;2023-03-01T13:13:45;6.90;;;5.25;;
22778;SDS011;11556;51.194;3.800;2023-03-01T13:16:46;7.53;;;4.95;;
22778;SDS011;11556;51.194;3.800;2023-03-01T13:19:15;6.97;;;5.10;;
22778;SDS011;11556;51.194;3.800;2023-03-01T13:21:42;7.45;;;5.00;;
22778;SDS011;11556;51.194;3.800;2023-03-01T13:29:53;8.52;;;6.05;;
22778;SDS011;11556;51.194;3.800;2023-03-01T13:37:40;6.82;;;4.97;;
22778;SDS011;11556;51.194;3.800;2023-03-01T13:42:44;7.15;;;5.13;;
22778;SDS011;11556;51.194;3.800;2023-03-01T13:47:57;7.05;;;4.80;;
22778;SDS011;11556;51.194;3.800;2023-03-01T13:50:32;7.47;;;5.40;;
22778;SDS011;11556;51.194;3.800;2023-03-01T13:53:04;7.57;;;5.00;;
22778;SDS011;11556;51.194;3.800;2023-03-01T13:55:36;7.45;;;5.22;;
22778;SDS011;11556;51.194;3.800;2023-03-01T13:58:15;8.15;;;5.28;;
22778;SDS011;11556;51.194;3.800;2023-03-01T14:00:44;9.90;;;4.95;;
22778;SDS011;11556;51.194;3.800;2023-03-01T14:05:38;7.35;;;5.38;;
22778;SDS011;11556;51.194;3.800;2023-03-01T14:08:17;8.77;;;5.50;;
22778;SDS011;11556;51.194;3.800;2023-03-01T14:10:52;7.20;;;4.88;;
22778;SDS011;11556;51.194;3.800;2023-03-01T14:16:14;6.32;;;4.88;;
22778;SDS011;11556;51.194;3.800;2023-03-01T14:21:34;8.38;;;5.57;;
22778;SDS011;11556;51.194;3.800;2023-03-01T14:24:01;8.77;;;5.45;;
22778;SDS011;11556;51.194;3.800;2023-03-01T14:26:28;7.28;;;5.20;;
22778;SDS011;11556;51.194;3.800;2023-03-01T14:28:56;7.40;;;5.22;;
22778;SDS011;11556;51.194;3.800;2023-03-01T14:31:32;9.85;;;4.88;;
22778;SDS011;11556;51.194;3.800;2023-03-01T14:34:03;9.32;;;5.43;;
22778;SDS011;11556;51.194;3.800;2023-03-01T14:36:30;8.43;;;5.30;;
22778;SDS011;11556;51.194;3.800;2023-03-01T14:38:58;12.38;;;5.70;;
22778;SDS011;11556;51.194;3.800;2023-03-01T14:41:29;7.38;;;5.05;;
22778;SDS011;11556;51.194;3.800;2023-03-01T14:44:00;8.02;;;5.00;;
22778;SDS011;11556;51.194;3.800;2023-03-01T14:46:33;9.65;;;5.13;;
22778;SDS011;11556;51.194;3.800;2023-03-01T14:49:05;7.45;;;5.60;;
22778;SDS011;11556;51.194;3.800;2023-03-01T14:51:38;7.47;;;5.38;;
22778;SDS011;11556;51.194;3.800;2023-03-01T14:54:20;7.72;;;5.30;;
22778;SDS011;11556;51.194;3.800;2023-03-01T14:57:01;6.63;;;5.10;;
22778;SDS011;11556;51.194;3.800;2023-03-01T14:59:27;7.10;;;5.35;;
22778;SDS011;11556;51.194;3.800;2023-03-01T15:01:55;6.47;;;5.00;;
22778;SDS011;11556;51.194;3.800;2023-03-01T15:04:23;8.02;;;5.22;;
22778;SDS011;11556;51.194;3.800;2023-03-01T15:06:51;8.57;;;5.80;;
22778;SDS011;11556;51.194;3.800;2023-03-01T15:09:18;5.97;;;4.97;;
22778;SDS011;11556;51.194;3.800;2023-03-01T15:11:44;10.32;;;5.40;;
22778;SDS011;11556;51.194;3.800;2023-03-01T15:14:26;11.13;;;5.75;;
22778;SDS011;11556;51.194;3.800;2023-03-01T15:17:41;8.55;;;5.63;;
22778;SDS011;11556;51.194;3.800;2023-03-01T15:20:01;9.27;;;5.30;;
22778;SDS011;11556;51.194;3.800;2023-03-01T15:22:30;11.38;;;6.07;;
22778;SDS011;11556;51.194;3.800;2023-03-01T15:24:56;12.00;;;5.57;;
22778;SDS011;11556;51.194;3.800;2023-03-01T15:27:23;9.48;;;6.15;;
22778;SDS011;11556;51.194;3.800;2023-03-01T15:29:52;10.32;;;6.45;;
22778;SDS011;11556;51.194;3.800;2023-03-01T15:34:49;9.48;;;6.03;;
22778;SDS011;11556;51.194;3.800;2023-03-01T15:39:59;9.40;;;5.85;;
22778;SDS011;11556;51.194;3.800;2023-03-01T15:45:10;9.23;;;6.70;;
22778;SDS011;11556;51.194;3.800;2023-03-01T15:47:51;8.27;;;6.47;;
22778;SDS011;11556;51.194;3.800;2023-03-01T15:50:23;9.02;;;5.97;;
22778;SDS011;11556;51.194;3.800;2023-03-01T15:52:56;12.88;;;7.05;;
22778;SDS011;11556;51.194;3.800;2023-03-01T15:55:24;9.20;;;6.03;;
22778;SDS011;11556;51.194;3.800;2023-03-01T15:58:13;10.13;;;6.77;;
22778;SDS011;11556;51.194;3.800;2023-03-01T16:00:45;8.65;;;6.50;;
22778;SDS011;11556;51.194;3.800;2023-03-01T16:03:13;9.52;;;6.45;;
22778;SDS011;11556;51.194;3.800;2023-03-01T16:05:39;10.20;;;6.30;;
22778;SDS011;11556;51.194;3.800;2023-03-01T16:08:05;9.98;;;6.80;;
22778;SDS011;11556;51.194;3.800;2023-03-01T16:10:32;11.23;;;7.00;;
22778;SDS011;11556;51.194;3.800;2023-03-01T16:12:58;9.98;;;6.50;;
22778;SDS011;11556;51.194;3.800;2023-03-01T16:15:29;9.80;;;6.55;;
22778;SDS011;11556;51.194;3.800;2023-03-01T16:17:56;9.98;;;7.13;;
22778;SDS011;11556;51.194;3.800;2023-03-01T16:20:25;7.70;;;6.03;;
22778;SDS011;11556;51.194;3.800;2023-03-01T16:22:51;10.35;;;6.68;;
22778;SDS011;11556;51.194;3.800;2023-03-01T16:25:18;9.82;;;6.40;;
22778;SDS011;11556;51.194;3.800;2023-03-01T16:27:45;9.55;;;6.82;;
22778;SDS011;11556;51.194;3.800;2023-03-01T16:30:14;8.95;;;6.63;;
22778;SDS011;11556;51.194;3.800;2023-03-01T16:32:42;11.43;;;7.07;;
22778;SDS011;11556;51.194;3.800;2023-03-01T16:35:10;12.02;;;6.75;;
22778;SDS011;11556;51.194;3.800;2023-03-01T16:37:37;11.38;;;7.53;;
22778;SDS011;11556;51.194;3.800;2023-03-01T16:40:04;12.50;;;6.65;;
22778;SDS011;11556;51.194;3.800;2023-03-01T16:42:35;11.15;;;6.75;;
22778;SDS011;11556;51.194;3.800;2023-03-01T16:45:01;14.45;;;6.40;;
22778;SDS011;11556;51.194;3.800;2023-03-01T16:47:28;11.88;;;6.45;;
22778;SDS011;11556;51.194;3.800;2023-03-01T16:49:54;11.65;;;6.35;;